Airfield :
LOGIN :

Register | Disclaimer

   EN    FR    IT 

 










Legend :    VFR   Marginal VFR   IFR   Intensive IFR   Very Intensive IFR
Visi :
Ceiling :
>= 8 km
>= 3000ft
5 to 8 km
1000 to 3000 ft
1500m to 5 km
500 to 1000 ft
800 to 1500m
200 to 500 ft
< 800m
< 200 ft
Symbols :   Thunderstorms  Fog  Heavy snow  Heavy precipitations  Wind > 20 kt
SIGMETs :     Misc.  Thunderstorms  Icing  Turbulence  Mountain Waves  Volcanic Ashes







- Airport Elevation : 2077 ft
- IATA code : FMM


EDJA - Memmingen

CURRENT METAR :
  • 151550Z 26011KT 9999 FEW040 02/M01 Q0999

EXPIRED METARs :
  • 151520Z 24011KT CAVOK 02/M01 Q0999
  • 151450Z 24013KT 9999 FEW046 02/M01 Q0999
  • 151420Z 24013KT 9999 FEW050 03/M01 Q0999
  • 151350Z 25015KT 9999 FEW029 SCT049 03/M01 Q0998
  • 151320Z 24019KT 9999 BKN029 03/M01 Q0999
  • 151250Z 24015KT CAVOK 03/M01 Q0998

TAF TAF EDJA
Valid from the 15 at 15:00 until the 16 at 00:00 UTC


151400Z 1515/1524 24012KT 9999 SCT020
BECMG 1516/1518 22007KT
No reported NOTAMs for that airfield.



MET'MAP, your aeronautical weather chart ! - Copyright ORBIFLY December 2007 - Disclaimer

ORBIFLY MET'MAP TEAM :

Programming & Development : Alexandra Zaïnal
Concept & Development : Baudouin d'Aumeries
Co-Development & Prog : Marc-Olivier Méhu
Technical & hardware support : Manuel Goepfert

Contact : metmap@orbifly.com




SOURCES & CREDITS :

   NOAA